sensor_id;sensor_type;location;lat;lon;timestamp;temperature;humidity
12006;DHT22;6062;47.294;12.182;2023-04-03T06:12:25;-1.80;77.50
12006;DHT22;6062;47.294;12.182;2023-04-03T06:14:51;-1.70;77.30
12006;DHT22;6062;47.294;12.182;2023-04-03T06:17:17;-1.50;77.40
12006;DHT22;6062;47.294;12.182;2023-04-03T06:19:44;-1.40;77.30
12006;DHT22;6062;47.294;12.182;2023-04-03T06:22:10;-1.30;77.40
12006;DHT22;6062;47.294;12.182;2023-04-03T06:24:37;-1.20;77.00
12006;DHT22;6062;47.294;12.182;2023-04-03T06:27:03;-1.10;76.60
12006;DHT22;6062;47.294;12.182;2023-04-03T06:29:30;-1.00;76.40
12006;DHT22;6062;47.294;12.182;2023-04-03T06:31:56;-0.90;76.00
12006;DHT22;6062;47.294;12.182;2023-04-03T06:34:22;-0.80;75.80
12006;DHT22;6062;47.294;12.182;2023-04-03T06:36:48;-0.70;75.60
12006;DHT22;6062;47.294;12.182;2023-04-03T06:39:19;-0.60;75.40
12006;DHT22;6062;47.294;12.182;2023-04-03T06:41:47;-0.50;74.80
12006;DHT22;6062;47.294;12.182;2023-04-03T06:44:13;-0.40;74.50
12006;DHT22;6062;47.294;12.182;2023-04-03T06:46:41;-0.30;74.50
12006;DHT22;6062;47.294;12.182;2023-04-03T06:49:08;-0.20;74.50
12006;DHT22;6062;47.294;12.182;2023-04-03T06:51:35;-0.10;74.40
12006;DHT22;6062;47.294;12.182;2023-04-03T06:54:02;0.10;74.10
12006;DHT22;6062;47.294;12.182;2023-04-03T06:56:29;0.20;73.90
12006;DHT22;6062;47.294;12.182;2023-04-03T06:58:56;0.30;73.80
12006;DHT22;6062;47.294;12.182;2023-04-03T07:01:24;0.50;73.50
12006;DHT22;6062;47.294;12.182;2023-04-03T07:03:52;0.60;73.00
12006;DHT22;6062;47.294;12.182;2023-04-03T07:06:19;0.70;72.60
12006;DHT22;6062;47.294;12.182;2023-04-03T07:08:45;0.80;72.30
12006;DHT22;6062;47.294;12.182;2023-04-03T07:11:12;0.90;71.90
12006;DHT22;6062;47.294;12.182;2023-04-03T07:13:38;1.00;71.30
12006;DHT22;6062;47.294;12.182;2023-04-03T07:16:05;1.10;70.80
12006;DHT22;6062;47.294;12.182;2023-04-03T07:18:33;1.20;70.20
12006;DHT22;6062;47.294;12.182;2023-04-03T07:20:59;1.30;69.70
12006;DHT22;6062;47.294;12.182;2023-04-03T07:23:25;1.30;69.30
12006;DHT22;6062;47.294;12.182;2023-04-03T07:25:52;1.40;69.00
12006;DHT22;6062;47.294;12.182;2023-04-03T07:28:20;1.40;68.70
12006;DHT22;6062;47.294;12.182;2023-04-03T07:31:05;1.50;68.50
12006;DHT22;6062;47.294;12.182;2023-04-03T07:33:34;1.60;68.70
12006;DHT22;6062;47.294;12.182;2023-04-03T07:36:00;1.60;68.80
12006;DHT22;6062;47.294;12.182;2023-04-03T07:38:26;1.80;68.70
12006;DHT22;6062;47.294;12.182;2023-04-03T07:40:52;1.80;68.50
12006;DHT22;6062;47.294;12.182;2023-04-03T07:43:19;2.00;68.20
12006;DHT22;6062;47.294;12.182;2023-04-03T07:45:47;2.10;68.00
12006;DHT22;6062;47.294;12.182;2023-04-03T07:48:17;2.20;67.60
12006;DHT22;6062;47.294;12.182;2023-04-03T07:50:45;2.30;67.10
12006;DHT22;6062;47.294;12.182;2023-04-03T07:53:10;2.40;66.70
12006;DHT22;6062;47.294;12.182;2023-04-03T07:55:36;2.50;66.70
12006;DHT22;6062;47.294;12.182;2023-04-03T07:58:09;2.70;66.50
12006;DHT22;6062;47.294;12.182;2023-04-03T08:00:37;2.80;66.20
12006;DHT22;6062;47.294;12.182;2023-04-03T08:03:03;2.90;65.90
12006;DHT22;6062;47.294;12.182;2023-04-03T08:05:30;3.00;65.30
12006;DHT22;6062;47.294;12.182;2023-04-03T08:07:56;3.10;64.70
12006;DHT22;6062;47.294;12.182;2023-04-03T08:10:22;3.20;64.40
12006;DHT22;6062;47.294;12.182;2023-04-03T08:12:48;3.20;64.00
12006;DHT22;6062;47.294;12.182;2023-04-03T08:15:14;3.30;64.00
12006;DHT22;6062;47.294;12.182;2023-04-03T08:17:40;3.40;63.90
12006;DHT22;6062;47.294;12.182;2023-04-03T08:20:06;3.50;63.80
12006;DHT22;6062;47.294;12.182;2023-04-03T08:22:33;3.60;63.00
12006;DHT22;6062;47.294;12.182;2023-04-03T08:24:59;3.70;62.90
12006;DHT22;6062;47.294;12.182;2023-04-03T08:27:26;3.80;62.90
12006;DHT22;6062;47.294;12.182;2023-04-03T08:29:52;3.90;62.40
12006;DHT22;6062;47.294;12.182;2023-04-03T08:32:18;4.00;62.30
12006;DHT22;6062;47.294;12.182;2023-04-03T08:34:44;4.10;62.10
12006;DHT22;6062;47.294;12.182;2023-04-03T08:37:11;4.20;61.90
12006;DHT22;6062;47.294;12.182;2023-04-03T08:39:37;4.30;61.60
12006;DHT22;6062;47.294;12.182;2023-04-03T08:42:10;4.40;61.40
12006;DHT22;6062;47.294;12.182;2023-04-03T08:44:59;4.50;61.00
12006;DHT22;6062;47.294;12.182;2023-04-03T08:47:52;4.60;60.90
12006;DHT22;6062;47.294;12.182;2023-04-03T08:50:29;4.70;60.40
12006;DHT22;6062;47.294;12.182;2023-04-03T08:52:59;4.70;60.10
12006;DHT22;6062;47.294;12.182;2023-04-03T08:55:34;4.80;60.00
12006;DHT22;6062;47.294;12.182;2023-04-03T08:58:31;4.90;59.70
12006;DHT22;6062;47.294;12.182;2023-04-03T09:04:16;5.00;59.00
12006;DHT22;6062;47.294;12.182;2023-04-03T09:06:58;5.10;58.80
12006;DHT22;6062;47.294;12.182;2023-04-03T09:09:38;5.20;58.50
12006;DHT22;6062;47.294;12.182;2023-04-03T09:15:20;5.40;58.30
12006;DHT22;6062;47.294;12.182;2023-04-03T09:18:01;5.50;57.60
12006;DHT22;6062;47.294;12.182;2023-04-03T09:23:44;5.60;56.80
12006;DHT22;6062;47.294;12.182;2023-04-03T09:26:24;5.70;56.70
12006;DHT22;6062;47.294;12.182;2023-04-03T09:28:57;5.80;56.60
12006;DHT22;6062;47.294;12.182;2023-04-03T09:31:35;5.80;56.50
12006;DHT22;6062;47.294;12.182;2023-04-03T09:34:27;5.90;56.20
12006;DHT22;6062;47.294;12.182;2023-04-03T09:36:55;6.00;56.20
12006;DHT22;6062;47.294;12.182;2023-04-03T09:39:28;6.10;56.30
12006;DHT22;6062;47.294;12.182;2023-04-03T09:42:01;6.20;56.10
12006;DHT22;6062;47.294;12.182;2023-04-03T09:46:58;6.40;56.10
12006;DHT22;6062;47.294;12.182;2023-04-03T09:49:25;6.40;55.80
12006;DHT22;6062;47.294;12.182;2023-04-03T09:51:51;6.50;55.50
12006;DHT22;6062;47.294;12.182;2023-04-03T09:56:51;6.70;54.90
12006;DHT22;6062;47.294;12.182;2023-04-03T09:59:20;6.80;55.10
12006;DHT22;6062;47.294;12.182;2023-04-03T10:02:04;6.90;54.90
12006;DHT22;6062;47.294;12.182;2023-04-03T10:10:42;7.10;53.20
12006;DHT22;6062;47.294;12.182;2023-04-03T10:13:13;7.10;53.40
12006;DHT22;6062;47.294;12.182;2023-04-03T10:15:58;7.10;53.50
12006;DHT22;6062;47.294;12.182;2023-04-03T10:21:44;7.30;52.60
12006;DHT22;6062;47.294;12.182;2023-04-03T10:33:08;7.40;52.30
12006;DHT22;6062;47.294;12.182;2023-04-03T10:44:31;7.60;51.00
12006;DHT22;6062;47.294;12.182;2023-04-03T10:51:16;7.50;51.10
12006;DHT22;6062;47.294;12.182;2023-04-03T10:54:25;7.50;51.20
12006;DHT22;6062;47.294;12.182;2023-04-03T10:57:10;7.50;51.00
12006;DHT22;6062;47.294;12.182;2023-04-03T10:59:45;7.40;50.80
12006;DHT22;6062;47.294;12.182;2023-04-03T11:02:36;7.40;50.70
12006;DHT22;6062;47.294;12.182;2023-04-03T11:05:17;7.30;50.30
12006;DHT22;6062;47.294;12.182;2023-04-03T11:07:53;7.30;50.20
12006;DHT22;6062;47.294;12.182;2023-04-03T11:10:40;7.30;50.20
12006;DHT22;6062;47.294;12.182;2023-04-03T11:13:14;7.30;50.30
12006;DHT22;6062;47.294;12.182;2023-04-03T11:15:48;7.30;50.30
12006;DHT22;6062;47.294;12.182;2023-04-03T11:18:28;7.40;50.40
12006;DHT22;6062;47.294;12.182;2023-04-03T11:21:07;7.50;50.30
12006;DHT22;6062;47.294;12.182;2023-04-03T11:23:36;7.60;50.00
12006;DHT22;6062;47.294;12.182;2023-04-03T11:26:13;7.80;50.30
12006;DHT22;6062;47.294;12.182;2023-04-03T11:28:42;7.90;49.90
12006;DHT22;6062;47.294;12.182;2023-04-03T11:40:08;8.40;48.30
12006;DHT22;6062;47.294;12.182;2023-04-03T11:42:46;8.50;48.30
12006;DHT22;6062;47.294;12.182;2023-04-03T11:50:46;8.70;47.00
12006;DHT22;6062;47.294;12.182;2023-04-03T11:58:25;8.80;45.90
12006;DHT22;6062;47.294;12.182;2023-04-03T12:00:54;8.90;45.50
12006;DHT22;6062;47.294;12.182;2023-04-03T12:11:25;7.50;44.70
12006;DHT22;6062;47.294;12.182;2023-04-03T12:16:28;6.70;45.10
12006;DHT22;6062;47.294;12.182;2023-04-03T12:32:28;4.40;48.50
12006;DHT22;6062;47.294;12.182;2023-04-03T12:46:28;2.90;50.70
12006;DHT22;6062;47.294;12.182;2023-04-03T12:52:31;2.70;52.20
12006;DHT22;6062;47.294;12.182;2023-04-03T12:55:17;2.70;52.80
12006;DHT22;6062;47.294;12.182;2023-04-03T12:57:45;2.70;53.10
12006;DHT22;6062;47.294;12.182;2023-04-03T13:00:27;2.70;52.60
12006;DHT22;6062;47.294;12.182;2023-04-03T13:02:59;2.60;51.90
12006;DHT22;6062;47.294;12.182;2023-04-03T13:05:27;2.40;51.90
12006;DHT22;6062;47.294;12.182;2023-04-03T13:08:00;2.30;52.40
12006;DHT22;6062;47.294;12.182;2023-04-03T13:10:29;2.10;52.70
12006;DHT22;6062;47.294;12.182;2023-04-03T13:12:57;1.90;52.70
12006;DHT22;6062;47.294;12.182;2023-04-03T13:15:44;1.80;53.00
12006;DHT22;6062;47.294;12.182;2023-04-03T13:18:23;1.50;53.50
12006;DHT22;6062;47.294;12.182;2023-04-03T13:20:52;1.30;53.90
12006;DHT22;6062;47.294;12.182;2023-04-03T13:23:20;1.10;54.20
12006;DHT22;6062;47.294;12.182;2023-04-03T13:25:47;0.90;54.70
12006;DHT22;6062;47.294;12.182;2023-04-03T13:28:19;0.70;55.20
12006;DHT22;6062;47.294;12.182;2023-04-03T13:31:01;0.60;55.70
12006;DHT22;6062;47.294;12.182;2023-04-03T13:33:30;0.50;56.30
12006;DHT22;6062;47.294;12.182;2023-04-03T13:36:10;0.40;56.40
12006;DHT22;6062;47.294;12.182;2023-04-03T13:38:44;0.30;56.80
12006;DHT22;6062;47.294;12.182;2023-04-03T13:41:30;0.20;56.90
12006;DHT22;6062;47.294;12.182;2023-04-03T13:44:31;0.30;57.70
12006;DHT22;6062;47.294;12.182;2023-04-03T13:47:22;0.30;58.20
12006;DHT22;6062;47.294;12.182;2023-04-03T13:50:17;0.40;58.40
12006;DHT22;6062;47.294;12.182;2023-04-03T13:52:54;0.60;58.70
12006;DHT22;6062;47.294;12.182;2023-04-03T13:55:30;0.70;58.40
12006;DHT22;6062;47.294;12.182;2023-04-03T14:03:58;1.00;56.90
12006;DHT22;6062;47.294;12.182;2023-04-03T14:06:26;0.90;56.50
12006;DHT22;6062;47.294;12.182;2023-04-03T14:08:52;0.80;56.50
12006;DHT22;6062;47.294;12.182;2023-04-03T14:11:22;0.50;56.60
12006;DHT22;6062;47.294;12.182;2023-04-03T14:13:52;0.40;57.00
12006;DHT22;6062;47.294;12.182;2023-04-03T14:16:21;0.10;57.20
12006;DHT22;6062;47.294;12.182;2023-04-03T14:18:51;0.00;57.60
12006;DHT22;6062;47.294;12.182;2023-04-03T14:21:19;-0.20;58.00
12006;DHT22;6062;47.294;12.182;2023-04-03T14:23:46;-0.30;58.30
12006;DHT22;6062;47.294;12.182;2023-04-03T14:26:19;-0.40;58.90
12006;DHT22;6062;47.294;12.182;2023-04-03T14:28:52;-0.50;59.30
12006;DHT22;6062;47.294;12.182;2023-04-03T14:31:19;-0.50;59.40
12006;DHT22;6062;47.294;12.182;2023-04-03T14:33:46;-0.50;59.30
12006;DHT22;6062;47.294;12.182;2023-04-03T14:36:20;-0.60;59.20
12006;DHT22;6062;47.294;12.182;2023-04-03T14:38:49;-0.70;59.30
12006;DHT22;6062;47.294;12.182;2023-04-03T14:41:17;-0.80;59.30
12006;DHT22;6062;47.294;12.182;2023-04-03T14:43:46;-0.80;59.60
12006;DHT22;6062;47.294;12.182;2023-04-03T14:46:30;-0.90;59.80
12006;DHT22;6062;47.294;12.182;2023-04-03T14:48:58;-0.90;60.10
12006;DHT22;6062;47.294;12.182;2023-04-03T14:51:24;-1.00;60.00
12006;DHT22;6062;47.294;12.182;2023-04-03T14:53:50;-1.10;60.00
12006;DHT22;6062;47.294;12.182;2023-04-03T14:56:18;-1.20;60.30
12006;DHT22;6062;47.294;12.182;2023-04-03T14:58:48;-1.20;60.50
12006;DHT22;6062;47.294;12.182;2023-04-03T15:01:18;-1.30;60.90
12006;DHT22;6062;47.294;12.182;2023-04-03T15:03:44;-1.40;61.10
12006;DHT22;6062;47.294;12.182;2023-04-03T15:06:13;-1.50;61.30
12006;DHT22;6062;47.294;12.182;2023-04-03T15:08:41;-1.60;61.90
12006;DHT22;6062;47.294;12.182;2023-04-03T15:11:09;-1.70;62.30
12006;DHT22;6062;47.294;12.182;2023-04-03T15:13:37;-1.70;62.80
12006;DHT22;6062;47.294;12.182;2023-04-03T15:16:04;-1.70;63.00
12006;DHT22;6062;47.294;12.182;2023-04-03T15:18:38;-1.70;63.20
12006;DHT22;6062;47.294;12.182;2023-04-03T15:21:04;-1.70;63.30
12006;DHT22;6062;47.294;12.182;2023-04-03T15:23:30;-1.70;63.30
12006;DHT22;6062;47.294;12.182;2023-04-03T15:25:57;-1.70;63.30
12006;DHT22;6062;47.294;12.182;2023-04-03T15:28:26;-1.70;64.00
12006;DHT22;6062;47.294;12.182;2023-04-03T15:30:55;-1.80;63.30
12006;DHT22;6062;47.294;12.182;2023-04-03T15:33:21;-1.80;63.60
12006;DHT22;6062;47.294;12.182;2023-04-03T15:35:47;-1.90;63.40
12006;DHT22;6062;47.294;12.182;2023-04-03T15:38:13;-1.90;63.50
12006;DHT22;6062;47.294;12.182;2023-04-03T15:40:38;-1.90;63.70
12006;DHT22;6062;47.294;12.182;2023-04-03T15:43:05;-2.00;63.80
12006;DHT22;6062;47.294;12.182;2023-04-03T15:45:33;-2.10;64.30
12006;DHT22;6062;47.294;12.182;2023-04-03T15:48:02;-2.10;64.30
12006;DHT22;6062;47.294;12.182;2023-04-03T15:50:30;-2.20;64.40
12006;DHT22;6062;47.294;12.182;2023-04-03T15:52:57;-2.20;64.70
12006;DHT22;6062;47.294;12.182;2023-04-03T15:55:26;-2.30;64.80
12006;DHT22;6062;47.294;12.182;2023-04-03T15:57:56;-2.30;65.10
12006;DHT22;6062;47.294;12.182;2023-04-03T16:00:23;-2.40;65.00
12006;DHT22;6062;47.294;12.182;2023-04-03T16:02:53;-2.40;65.30
12006;DHT22;6062;47.294;12.182;2023-04-03T16:05:22;-2.50;65.30
12006;DHT22;6062;47.294;12.182;2023-04-03T16:07:48;-2.50;65.10
12006;DHT22;6062;47.294;12.182;2023-04-03T16:10:16;-2.60;65.30
12006;DHT22;6062;47.294;12.182;2023-04-03T16:12:43;-2.70;65.70
12006;DHT22;6062;47.294;12.182;2023-04-03T16:15:10;-2.80;65.80
12006;DHT22;6062;47.294;12.182;2023-04-03T16:17:38;-2.80;66.20
12006;DHT22;6062;47.294;12.182;2023-04-03T16:20:07;-2.90;66.40
12006;DHT22;6062;47.294;12.182;2023-04-03T16:22:34;-2.90;66.80
12006;DHT22;6062;47.294;12.182;2023-04-03T16:25:01;-2.90;66.90
12006;DHT22;6062;47.294;12.182;2023-04-03T16:27:28;-3.00;67.00
12006;DHT22;6062;47.294;12.182;2023-04-03T16:29:56;-3.00;67.10
12006;DHT22;6062;47.294;12.182;2023-04-03T16:32:23;-3.00;67.30
12006;DHT22;6062;47.294;12.182;2023-04-03T16:34:51;-3.10;67.50
12006;DHT22;6062;47.294;12.182;2023-04-03T16:37:17;-3.10;67.60
12006;DHT22;6062;47.294;12.182;2023-04-03T16:39:43;-3.10;67.80
12006;DHT22;6062;47.294;12.182;2023-04-03T16:42:09;-3.20;67.80
12006;DHT22;6062;47.294;12.182;2023-04-03T16:44:35;-3.20;67.90
12006;DHT22;6062;47.294;12.182;2023-04-03T16:47:02;-3.30;68.20
12006;DHT22;6062;47.294;12.182;2023-04-03T16:49:28;-3.30;68.40
12006;DHT22;6062;47.294;12.182;2023-04-03T16:51:58;-3.40;68.80
12006;DHT22;6062;47.294;12.182;2023-04-03T16:54:25;-3.40;69.00
12006;DHT22;6062;47.294;12.182;2023-04-03T16:56:51;-3.40;69.10
12006;DHT22;6062;47.294;12.182;2023-04-03T16:59:18;-3.40;69.00
12006;DHT22;6062;47.294;12.182;2023-04-03T17:01:43;-3.50;69.00
12006;DHT22;6062;47.294;12.182;2023-04-03T17:04:09;-3.50;68.80
12006;DHT22;6062;47.294;12.182;2023-04-03T17:06:35;-3.50;68.90
12006;DHT22;6062;47.294;12.182;2023-04-03T17:09:01;-3.50;69.00
12006;DHT22;6062;47.294;12.182;2023-04-03T17:11:27;-3.60;68.70
12006;DHT22;6062;47.294;12.182;2023-04-03T17:13:53;-3.60;68.80
12006;DHT22;6062;47.294;12.182;2023-04-03T17:16:19;-3.60;68.90
12006;DHT22;6062;47.294;12.182;2023-04-03T17:18:46;-3.70;68.80
12006;DHT22;6062;47.294;12.182;2023-04-03T17:21:13;-3.70;68.70
12006;DHT22;6062;47.294;12.182;2023-04-03T17:23:41;-3.70;68.60
12006;DHT22;6062;47.294;12.182;2023-04-03T17:26:09;-3.60;68.70
12006;DHT22;6062;47.294;12.182;2023-04-03T17:28:35;-3.70;68.30
12006;DHT22;6062;47.294;12.182;2023-04-03T17:31:02;-3.70;68.10
12006;DHT22;6062;47.294;12.182;2023-04-03T17:33:28;-3.70;68.00
12006;DHT22;6062;47.294;12.182;2023-04-03T17:35:59;-3.80;67.90
12006;DHT22;6062;47.294;12.182;2023-04-03T17:38:29;-3.90;67.80
12006;DHT22;6062;47.294;12.182;2023-04-03T17:40:56;-3.90;68.00
12006;DHT22;6062;47.294;12.182;2023-04-03T17:43:23;-3.90;68.10
12006;DHT22;6062;47.294;12.182;2023-04-03T17:45:50;-3.90;68.20
12006;DHT22;6062;47.294;12.182;2023-04-03T17:48:15;-4.00;68.30
12006;DHT22;6062;47.294;12.182;2023-04-03T17:50:41;-4.00;68.40
12006;DHT22;6062;47.294;12.182;2023-04-03T17:53:18;-3.90;68.50
12006;DHT22;6062;47.294;12.182;2023-04-03T17:55:44;-3.90;68.90
12006;DHT22;6062;47.294;12.182;2023-04-03T17:58:09;-4.00;68.50
12006;DHT22;6062;47.294;12.182;2023-04-03T18:00:35;-4.00;68.60
12006;DHT22;6062;47.294;12.182;2023-04-03T18:03:01;-4.00;68.80
12006;DHT22;6062;47.294;12.182;2023-04-03T18:05:28;-4.00;69.00
12006;DHT22;6062;47.294;12.182;2023-04-03T18:07:55;-4.10;69.10
12006;DHT22;6062;47.294;12.182;2023-04-03T18:10:23;-4.10;69.00
12006;DHT22;6062;47.294;12.182;2023-04-03T18:12:50;-4.20;68.90
12006;DHT22;6062;47.294;12.182;2023-04-03T18:15:17;-4.30;69.00
12006;DHT22;6062;47.294;12.182;2023-04-03T18:17:43;-4.30;69.30
12006;DHT22;6062;47.294;12.182;2023-04-03T18:20:11;-4.30;69.60
12006;DHT22;6062;47.294;12.182;2023-04-03T18:22:40;-4.30;69.80
12006;DHT22;6062;47.294;12.182;2023-04-03T18:25:06;-4.40;69.80
12006;DHT22;6062;47.294;12.182;2023-04-03T18:27:33;-4.40;70.00
12006;DHT22;6062;47.294;12.182;2023-04-03T18:30:03;-4.50;69.90
12006;DHT22;6062;47.294;12.182;2023-04-03T18:32:32;-4.50;70.00
12006;DHT22;6062;47.294;12.182;2023-04-03T18:34:59;-4.50;70.10
12006;DHT22;6062;47.294;12.182;2023-04-03T18:37:25;-4.50;70.10
12006;DHT22;6062;47.294;12.182;2023-04-03T18:39:52;-4.50;70.10
12006;DHT22;6062;47.294;12.182;2023-04-03T18:42:21;-4.60;70.10
12006;DHT22;6062;47.294;12.182;2023-04-03T18:44:54;-4.50;70.40
12006;DHT22;6062;47.294;12.182;2023-04-03T18:47:23;-4.50;70.50
12006;DHT22;6062;47.294;12.182;2023-04-03T18:49:49;-4.50;70.50
12006;DHT22;6062;47.294;12.182;2023-04-03T18:52:15;-4.50;70.60
12006;DHT22;6062;47.294;12.182;2023-04-03T18:54:40;-4.50;70.70
12006;DHT22;6062;47.294;12.182;2023-04-03T18:57:07;-4.60;70.70
12006;DHT22;6062;47.294;12.182;2023-04-03T18:59:33;-4.60;71.00
12006;DHT22;6062;47.294;12.182;2023-04-03T19:01:59;-4.60;71.20
12006;DHT22;6062;47.294;12.182;2023-04-03T19:04:26;-4.60;71.10
12006;DHT22;6062;47.294;12.182;2023-04-03T19:06:53;-4.50;72.10
12006;DHT22;6062;47.294;12.182;2023-04-03T19:09:19;-4.50;71.40
12006;DHT22;6062;47.294;12.182;2023-04-03T19:11:45;-4.60;71.40
12006;DHT22;6062;47.294;12.182;2023-04-03T19:14:11;-4.60;71.40
12006;DHT22;6062;47.294;12.182;2023-04-03T19:16:36;-4.60;71.30
12006;DHT22;6062;47.294;12.182;2023-04-03T19:19:02;-4.60;71.20
12006;DHT22;6062;47.294;12.182;2023-04-03T19:21:28;-4.60;71.10
12006;DHT22;6062;47.294;12.182;2023-04-03T19:23:54;-4.50;71.20
12006;DHT22;6062;47.294;12.182;2023-04-03T19:26:23;-4.60;71.10
12006;DHT22;6062;47.294;12.182;2023-04-03T19:28:53;-4.50;71.10
12006;DHT22;6062;47.294;12.182;2023-04-03T19:31:20;-4.50;71.00
12006;DHT22;6062;47.294;12.182;2023-04-03T19:33:46;-4.60;70.80
12006;DHT22;6062;47.294;12.182;2023-04-03T19:36:13;-4.60;70.70
12006;DHT22;6062;47.294;12.182;2023-04-03T19:38:40;-4.60;70.80
12006;DHT22;6062;47.294;12.182;2023-04-03T19:41:10;-4.60;71.40
12006;DHT22;6062;47.294;12.182;2023-04-03T19:43:39;-4.70;70.60
12006;DHT22;6062;47.294;12.182;2023-04-03T19:46:06;-4.70;70.70
12006;DHT22;6062;47.294;12.182;2023-04-03T19:48:32;-4.70;70.90
12006;DHT22;6062;47.294;12.182;2023-04-03T19:50:58;-4.70;71.00
12006;DHT22;6062;47.294;12.182;2023-04-03T19:53:24;-4.70;71.20
12006;DHT22;6062;47.294;12.182;2023-04-03T19:55:54;-4.70;71.00
12006;DHT22;6062;47.294;12.182;2023-04-03T19:58:21;-4.70;71.10
12006;DHT22;6062;47.294;12.182;2023-04-03T20:00:48;-4.60;71.10
12006;DHT22;6062;47.294;12.182;2023-04-03T20:03:14;-4.60;71.10
12006;DHT22;6062;47.294;12.182;2023-04-03T20:05:40;-4.60;71.00
12006;DHT22;6062;47.294;12.182;2023-04-03T20:08:06;-4.60;70.80
12006;DHT22;6062;47.294;12.182;2023-04-03T20:10:32;-4.60;70.80
12006;DHT22;6062;47.294;12.182;2023-04-03T20:12:57;-4.60;70.70
12006;DHT22;6062;47.294;12.182;2023-04-03T20:15:23;-4.70;70.80
12006;DHT22;6062;47.294;12.182;2023-04-03T20:17:50;-4.60;70.90
12006;DHT22;6062;47.294;12.182;2023-04-03T20:20:16;-4.70;70.90
12006;DHT22;6062;47.294;12.182;2023-04-03T20:22:42;-4.70;70.90
12006;DHT22;6062;47.294;12.182;2023-04-03T20:25:10;-4.70;70.90
12006;DHT22;6062;47.294;12.182;2023-04-03T20:27:37;-4.70;70.90
12006;DHT22;6062;47.294;12.182;2023-04-03T20:30:05;-4.70;71.00
12006;DHT22;6062;47.294;12.182;2023-04-03T20:32:35;-4.80;71.10
12006;DHT22;6062;47.294;12.182;2023-04-03T20:35:01;-4.80;71.10
12006;DHT22;6062;47.294;12.182;2023-04-03T20:37:27;-4.90;71.10
12006;DHT22;6062;47.294;12.182;2023-04-03T20:39:53;-4.90;71.00
12006;DHT22;6062;47.294;12.182;2023-04-03T20:42:19;-4.90;71.10
12006;DHT22;6062;47.294;12.182;2023-04-03T20:44:44;-5.00;71.20
12006;DHT22;6062;47.294;12.182;2023-04-03T20:47:11;-5.00;71.50
12006;DHT22;6062;47.294;12.182;2023-04-03T20:49:38;-5.00;71.70
12006;DHT22;6062;47.294;12.182;2023-04-03T20:52:04;-5.00;71.90
12006;DHT22;6062;47.294;12.182;2023-04-03T20:54:30;-5.00;72.00
12006;DHT22;6062;47.294;12.182;2023-04-03T20:56:56;-5.00;72.10
12006;DHT22;6062;47.294;12.182;2023-04-03T20:59:21;-5.10;71.70
